Terminal Aerodrome Forecast
Issued by NWS Louisville, KY

Home | Current Version | Previous Version | Text Only | Print | Product List | Glossary On
Versions: 1 2 3 4 5 6 7 8 9 10 11 12 13
000
FTUS43 KLMK 261700
TAFLEX
TAF
KLEX 261722Z 2618/2718 01007KT P6SM BKN150
     FM270000 35011KT P6SM BKN025
     FM270600 34005KT P6SM BKN020
     FM271400 36005KT P6SM BKN035=

USA.gov is the U.S. government's official web portal to all federal, state and local government web resources and services.